Time;durP1;ratioP1;P1;durP2;ratioP2;P2;SDS_P1;SDS_P2;PMS_P1;PMS_P2;Temp;Humidity;BMP_temperature;BMP_pressure;BME280_temperature;BME280_humidity;BME280_pressure;Samples;Min_cycle;Max_cycle;Signal;HPM_P1;HPM_P2
2024/01/11 00:01:12;;;;;;;196.00;77.20;;;;;;;-5.20;67.22;100119.73;107711;1286;22239;-50
2024/01/11 00:03:37;;;;;;;195.20;78.10;;;;;;;-5.19;67.02;100114.81;107692;1309;22323;-49
2024/01/11 00:06:04;;;;;;;199.50;76.60;;;;;;;-5.17;67.03;100105.27;107689;1290;22326;-51
2024/01/11 00:08:29;;;;;;;199.30;81.20;;;;;;;-5.20;66.92;100104.20;107690;1309;22710;-50
2024/01/11 00:10:54;;;;;;;191.40;77.10;;;;;;;-5.22;67.30;100098.17;107675;1309;22918;-49
2024/01/11 00:13:20;;;;;;;209.60;83.20;;;;;;;-5.24;67.50;100088.20;107662;1291;22849;-47
2024/01/11 00:15:45;;;;;;;202.20;77.00;;;;;;;-5.27;67.70;100089.33;107672;1309;22609;-49
2024/01/11 00:18:10;;;;;;;205.20;80.30;;;;;;;-5.31;68.23;100084.64;107699;1309;23277;-47
2024/01/11 00:20:36;;;;;;;211.50;83.60;;;;;;;-5.31;68.25;100081.90;107686;1309;22241;-49
2024/01/11 00:23:01;;;;;;;205.30;82.30;;;;;;;-5.32;68.53;100081.55;107679;1289;22422;-49
2024/01/11 00:25:26;;;;;;;207.10;79.80;;;;;;;-5.30;68.20;100075.94;107656;1309;22334;-46
2024/01/11 00:27:52;;;;;;;196.20;76.30;;;;;;;-5.33;68.32;100076.73;107650;1309;22264;-50
2024/01/11 00:30:17;;;;;;;206.90;82.40;;;;;;;-5.38;68.54;100077.48;107678;1309;23032;-48
2024/01/11 00:32:42;;;;;;;202.80;77.70;;;;;;;-5.35;68.33;100080.77;107665;1309;22298;-48
2024/01/11 00:35:07;;;;;;;205.30;78.40;;;;;;;-5.39;68.49;100085.66;107676;1309;22420;-49
2024/01/11 00:37:33;;;;;;;202.00;79.40;;;;;;;-5.39;68.46;100091.99;107699;1302;22231;-51
2024/01/11 00:39:58;;;;;;;194.20;75.20;;;;;;;-5.37;68.09;100082.61;107689;1309;22265;-50
2024/01/11 00:42:23;;;;;;;183.00;74.20;;;;;;;-5.40;67.89;100075.73;107694;1286;22248;-50
2024/01/11 00:44:49;;;;;;;203.30;80.20;;;;;;;-5.40;67.69;100068.90;107666;1309;22390;-50
2024/01/11 00:47:14;;;;;;;217.10;81.40;;;;;;;-5.40;67.91;100065.80;107699;1291;22321;-46
2024/01/11 00:49:40;;;;;;;224.90;80.80;;;;;;;-5.36;67.80;100060.61;107680;1291;22225;-51
2024/01/11 00:52:05;;;;;;;197.10;79.50;;;;;;;-5.33;67.49;100058.27;107663;1290;22235;-51
2024/01/11 00:54:30;;;;;;;216.70;83.40;;;;;;;-5.29;67.32;100052.89;107682;1289;22273;-50
2024/01/11 00:56:55;;;;;;;199.20;78.30;;;;;;;-5.29;67.19;100048.27;107663;1290;23203;-50
2024/01/11 00:59:21;;;;;;;194.50;79.20;;;;;;;-5.27;67.14;100043.00;107679;1309;23139;-48
2024/01/11 01:01:50;;;;;;;179.90;72.40;;;;;;;-5.28;66.94;100034.30;107695;1297;23295;-48
2024/01/11 01:04:15;;;;;;;199.70;76.80;;;;;;;-5.31;66.65;100039.51;107706;1288;22425;-48
2024/01/11 01:06:41;;;;;;;193.80;79.50;;;;;;;-5.34;66.78;100040.98;107714;1290;22283;-51
2024/01/11 01:09:06;;;;;;;205.50;79.60;;;;;;;-5.34;66.85;100042.02;107691;1288;23057;-52
2024/01/11 01:11:31;;;;;;;193.00;75.90;;;;;;;-5.33;66.85;100032.13;107699;1309;22263;-49
2024/01/11 01:13:56;;;;;;;192.80;75.40;;;;;;;-5.39;67.19;100024.48;107678;1309;22448;-50
2024/01/11 01:16:22;;;;;;;198.80;74.70;;;;;;;-5.44;67.32;100022.85;107682;1309;22231;-51
2024/01/11 01:18:47;;;;;;;194.40;77.50;;;;;;;-5.41;67.39;100024.61;107705;1287;22228;-50
2024/01/11 01:21:12;;;;;;;190.60;72.40;;;;;;;-5.44;67.27;100024.21;107687;1309;22443;-48
2024/01/11 01:23:38;;;;;;;205.30;77.90;;;;;;;-5.53;67.67;100027.60;107656;1291;22368;-50
2024/01/11 01:26:03;;;;;;;186.60;72.70;;;;;;;-5.49;67.30;100027.17;107680;1309;22371;-50
2024/01/11 01:28:28;;;;;;;197.20;78.30;;;;;;;-5.47;67.10;100020.71;107680;1291;22868;-46
2024/01/11 01:30:53;;;;;;;196.50;75.90;;;;;;;-5.45;66.98;100013.08;107722;1309;22252;-49
2024/01/11 01:33:19;;;;;;;183.40;69.70;;;;;;;-5.49;66.79;100002.40;107702;1304;22245;-47
2024/01/11 01:35:44;;;;;;;199.50;73.10;;;;;;;-5.47;66.58;99995.79;107679;1289;22275;-47
2024/01/11 01:38:09;;;;;;;187.10;69.80;;;;;;;-5.45;66.37;99998.71;107673;1291;22893;-51
2024/01/11 01:40:34;;;;;;;192.40;73.70;;;;;;;-5.43;66.07;100007.48;107689;1290;23108;-50
2024/01/11 01:43:00;;;;;;;174.20;68.30;;;;;;;-5.42;65.87;100009.90;107684;1309;22412;-49
2024/01/11 01:45:26;;;;;;;163.00;65.70;;;;;;;-5.39;65.90;100005.86;107680;1309;22339;-45
2024/01/11 01:47:51;;;;;;;175.80;64.30;;;;;;;-5.36;65.64;100011.05;107679;1288;22385;-46
2024/01/11 01:50:18;;;;;;;176.40;69.10;;;;;;;-5.33;65.43;100012.48;107653;1291;22925;-47
2024/01/11 01:52:44;;;;;;;164.10;65.80;;;;;;;-5.36;65.19;100015.31;107714;1309;22407;-48
2024/01/11 01:55:12;;;;;;;171.00;66.40;;;;;;;-5.37;65.00;100014.28;107685;1286;23564;-48
2024/01/11 01:57:39;;;;;;;158.60;62.30;;;;;;;-5.34;64.92;100020.13;107693;1291;22469;-47
2024/01/11 02:00:05;;;;;;;167.50;63.40;;;;;;;-5.38;64.49;100019.54;107696;1289;22197;-48
2024/01/11 02:02:32;;;;;;;166.50;64.00;;;;;;;-5.43;64.46;100021.17;107710;1294;23025;-47
2024/01/11 02:04:57;;;;;;;156.10;64.50;;;;;;;-5.43;64.56;100020.64;107696;1291;22260;-46
2024/01/11 02:07:24;;;;;;;168.40;65.30;;;;;;;-5.43;64.57;100019.28;107680;1290;23722;-47
2024/01/11 02:09:50;;;;;;;151.90;60.60;;;;;;;-5.44;64.49;100016.02;107706;1292;22258;-45
2024/01/11 02:12:15;;;;;;;162.40;62.20;;;;;;;-5.44;64.56;100005.25;107699;1290;22419;-46
2024/01/11 02:14:40;;;;;;;152.40;63.20;;;;;;;-5.43;64.41;100004.92;107698;1288;22263;-47
2024/01/11 02:17:06;;;;;;;162.70;64.60;;;;;;;-5.43;64.30;100011.77;107692;1309;22358;-46
2024/01/11 02:19:33;;;;;;;158.80;61.50;;;;;;;-5.43;64.22;100007.14;107687;1288;22262;-48
2024/01/11 02:22:00;;;;;;;;;;;;;;;-5.42;64.19;100005.11;107707;1309;22483;-48
2024/01/11 02:24:25;;;;;;;164.20;59.30;;;;;;;-5.44;63.89;100020.62;107700;1286;22235;-48
2024/01/11 02:27:10;;;;;;;148.80;56.60;;;;;;;-5.50;63.98;100028.01;107716;1290;22470;-50
2024/01/11 02:29:36;;;;;;;140.90;56.30;;;;;;;-5.49;63.87;100018.98;107717;1289;22255;-48
2024/01/11 02:32:02;;;;;;;159.90;62.00;;;;;;;-5.47;63.78;100030.98;107697;1287;23020;-49
2024/01/11 02:34:29;;;;;;;147.00;59.20;;;;;;;-5.47;63.78;100033.88;107722;1307;23021;-48
2024/01/11 02:36:55;;;;;;;149.80;59.50;;;;;;;-5.47;63.59;100040.55;107688;1309;23100;-50
2024/01/11 02:39:22;;;;;;;166.10;60.50;;;;;;;-5.44;63.60;100026.42;107720;1287;22216;-50
2024/01/11 02:41:50;;;;;;;149.30;58.70;;;;;;;-5.38;63.65;100004.33;107701;1304;22413;-49
2024/01/11 02:44:15;;;;;;;144.90;55.90;;;;;;;-5.33;63.40;99998.63;107719;1287;22426;-49
2024/01/11 02:46:40;;;;;;;154.60;57.90;;;;;;;-5.29;63.32;99996.33;107708;1309;23266;-49
2024/01/11 02:49:05;;;;;;;147.30;57.50;;;;;;;-5.27;62.99;99994.67;107675;1309;22342;-49
2024/01/11 02:51:31;;;;;;;126.40;51.60;;;;;;;-5.25;62.78;100002.88;107684;1305;22321;-48
2024/01/11 02:53:56;;;;;;;135.20;53.80;;;;;;;-5.27;62.38;99998.58;107691;1309;23038;-47
2024/01/11 02:56:21;;;;;;;146.80;56.60;;;;;;;-5.30;62.48;99992.38;107692;1309;22196;-46
2024/01/11 02:58:47;;;;;;;133.20;53.70;;;;;;;-5.29;62.22;99985.88;107700;1290;22314;-50
2024/01/11 03:01:12;;;;;;;136.80;56.10;;;;;;;-5.31;62.18;99972.70;107690;1309;22408;-50
2024/01/11 03:03:37;;;;;;;136.00;52.50;;;;;;;-5.32;62.31;99960.86;107697;1305;22414;-50
2024/01/11 03:06:03;;;;;;;139.80;53.70;;;;;;;-5.33;62.52;99958.46;107695;1291;23161;-48
2024/01/11 03:08:29;;;;;;;132.60;53.40;;;;;;;-5.30;62.70;99959.71;107716;1309;23175;-49
2024/01/11 03:10:54;;;;;;;139.20;57.30;;;;;;;-5.32;62.58;99950.96;107721;1309;22940;-48
2024/01/11 03:16:13;;;;;;;132.80;54.60;;;;;;;-5.29;63.02;99940.08;106907;1313;558038;-49
2024/01/11 03:18:39;;;;;;;139.80;56.50;;;;;;;-5.33;62.97;99938.81;107309;1298;22355;-48
2024/01/11 03:21:04;;;;;;;140.00;54.10;;;;;;;-5.31;63.02;99943.46;107295;1313;22660;-51
2024/01/11 03:23:30;;;;;;;133.70;54.60;;;;;;;-5.28;62.97;99932.91;107359;1294;22532;-49
2024/01/11 03:25:55;;;;;;;132.30;53.80;;;;;;;-5.27;62.97;99923.02;107357;1293;22281;-51
2024/01/11 03:28:20;;;;;;;140.10;53.70;;;;;;;-5.31;62.82;99924.14;107249;1311;139252;-50
2024/01/11 03:30:45;;;;;;;145.40;54.80;;;;;;;-5.34;62.75;99937.08;107586;1297;22432;-48
2024/01/11 03:33:11;;;;;;;133.40;51.40;;;;;;;-5.35;62.86;99955.17;107545;1300;23356;-49
2024/01/11 03:35:39;;;;;;;139.10;54.10;;;;;;;-5.33;62.70;99951.61;107576;1289;22679;-49
2024/01/11 03:38:05;;;;;;;129.90;53.30;;;;;;;-5.33;62.56;99959.99;107606;1304;22805;-49
2024/01/11 03:40:30;;;;;;;131.30;51.10;;;;;;;-5.32;62.36;99957.27;107613;1310;22221;-47
2024/01/11 03:42:56;;;;;;;127.30;51.40;;;;;;;-5.29;62.34;99944.02;107601;1310;22339;-48
2024/01/11 03:45:21;;;;;;;120.30;50.40;;;;;;;-5.24;62.42;99934.36;107615;1310;22273;-50
2024/01/11 03:47:46;;;;;;;134.30;53.70;;;;;;;-5.23;62.39;99933.36;107616;1304;22352;-49
2024/01/11 03:50:12;;;;;;;135.80;52.00;;;;;;;-5.22;62.41;99929.44;107605;1291;23228;-50
2024/01/11 03:52:39;;;;;;;129.20;50.00;;;;;;;-5.21;62.30;99922.46;107619;1292;22537;-49
2024/01/11 03:55:05;;;;;;;;;;;;;;;-5.18;62.09;99910.38;107607;1310;22452;-50
2024/01/11 03:57:30;;;;;;;134.50;51.90;;;;;;;-5.13;62.34;99894.39;107610;1294;22344;-50
2024/01/11 03:59:55;;;;;;;131.50;51.30;;;;;;;-5.12;62.27;99893.90;107602;1291;22975;-49
2024/01/11 04:02:20;;;;;;;127.80;51.30;;;;;;;-5.11;62.36;99891.19;107615;1295;24478;-47
2024/01/11 04:04:46;;;;;;;119.50;47.60;;;;;;;-5.09;62.31;99876.68;107595;1310;22466;-47
2024/01/11 04:07:11;;;;;;;111.70;46.80;;;;;;;-5.12;62.04;99870.30;107574;1291;22312;-50
2024/01/11 04:09:39;;;;;;;120.00;46.40;;;;;;;-5.13;62.29;99874.56;107562;1291;23108;-51
2024/01/11 04:12:05;;;;;;;124.00;49.80;;;;;;;-5.11;62.33;99885.70;107566;1310;22290;-48
2024/01/11 04:14:31;;;;;;;128.80;50.90;;;;;;;-5.14;62.31;99902.05;107567;1291;22455;-51
2024/01/11 04:16:56;;;;;;;118.80;49.40;;;;;;;-5.16;62.54;99911.60;107682;1309;22472;-49
2024/01/11 04:19:21;;;;;;;123.50;51.00;;;;;;;-5.14;62.73;99907.52;107665;1309;22142;-51
2024/01/11 04:21:47;;;;;;;125.90;51.40;;;;;;;-5.21;62.87;99912.54;107871;1284;22521;-51
2024/01/11 04:24:12;;;;;;;133.40;51.70;;;;;;;-5.19;63.19;99902.33;107845;1288;22509;-50
2024/01/11 04:26:37;;;;;;;133.70;52.30;;;;;;;-5.17;63.33;99905.77;107856;1288;23350;-47
2024/01/11 04:29:03;;;;;;;136.40;54.00;;;;;;;-5.13;63.41;99898.33;107860;1293;22251;-48
2024/01/11 04:31:28;;;;;;;134.70;53.00;;;;;;;-5.18;63.78;99886.09;107835;1308;22354;-47
2024/01/11 04:33:53;;;;;;;135.30;54.40;;;;;;;-5.23;64.21;99878.83;107837;1284;22230;-51
2024/01/11 04:36:19;;;;;;;136.30;54.00;;;;;;;-5.23;64.24;99867.20;107845;1289;22959;-49
2024/01/11 04:38:44;;;;;;;136.80;53.90;;;;;;;-5.23;64.32;99861.21;107844;1290;23362;-47
2024/01/11 04:41:10;;;;;;;120.80;49.00;;;;;;;-5.25;64.39;99857.26;107807;1291;22253;-50
2024/01/11 04:43:40;;;;;;;136.60;52.70;;;;;;;-5.31;65.04;99857.15;107843;1290;22490;-48
2024/01/11 04:46:21;;;;;;;128.80;53.20;;;;;;;-5.29;65.00;99851.38;107828;1288;22527;-51
2024/01/11 04:48:48;;;;;;;123.20;51.50;;;;;;;-5.31;65.40;99855.44;107839;1297;22413;-50
2024/01/11 04:51:15;;;;;;;132.90;53.20;;;;;;;-5.35;65.56;99858.95;107850;1288;22245;-47
2024/01/11 04:53:41;;;;;;;125.80;51.80;;;;;;;-5.36;65.62;99857.39;107875;1288;22500;-51
2024/01/11 04:56:07;;;;;;;138.80;55.40;;;;;;;-5.37;65.64;99837.90;107840;1308;22607;-50
2024/01/11 04:58:33;;;;;;;125.00;50.40;;;;;;;-5.41;65.97;99817.16;107825;1288;22491;-49
2024/01/11 05:00:58;;;;;;;142.90;54.60;;;;;;;-5.47;66.54;99806.30;107840;1296;22482;-50
2024/01/11 05:03:23;;;;;;;130.70;52.50;;;;;;;-5.53;66.90;99801.92;107865;1308;23156;-51
2024/01/11 05:05:49;;;;;;;138.10;55.20;;;;;;;-5.53;67.06;99792.35;107821;1308;22259;-52
2024/01/11 05:08:14;;;;;;;138.50;55.40;;;;;;;-5.58;67.60;99773.64;107847;1289;23182;-50
2024/01/11 05:10:39;;;;;;;129.70;51.60;;;;;;;-5.56;67.53;99768.02;107874;1284;22472;-50
2024/01/11 05:13:04;;;;;;;138.20;53.20;;;;;;;-5.58;67.53;99756.73;107854;1289;22230;-50
2024/01/11 05:15:30;;;;;;;119.40;49.20;;;;;;;-5.57;67.35;99753.14;107832;1307;22445;-49
2024/01/11 05:17:56;;;;;;;127.70;49.30;;;;;;;-5.63;68.38;99766.05;107840;1293;22399;-50
2024/01/11 05:20:22;;;;;;;135.30;54.50;;;;;;;-5.67;68.98;99775.00;107856;1290;22230;-49
2024/01/11 05:22:47;;;;;;;128.90;52.20;;;;;;;-5.70;69.34;99781.29;107814;1308;22229;-47
2024/01/11 05:25:12;;;;;;;140.40;50.70;;;;;;;-5.67;69.10;99787.83;107864;1288;22347;-51
2024/01/11 05:27:37;;;;;;;131.60;53.10;;;;;;;-5.67;69.30;99794.83;107826;1289;22510;-48
2024/01/11 05:30:03;;;;;;;127.80;50.00;;;;;;;-5.65;69.20;99807.33;107847;1308;22470;-51
2024/01/11 05:32:28;;;;;;;120.10;47.30;;;;;;;-5.66;69.80;99820.13;107824;1294;22321;-52
2024/01/11 05:34:54;;;;;;;133.50;51.40;;;;;;;-5.62;69.98;99817.98;107838;1288;22135;-49
2024/01/11 05:37:20;;;;;;;135.30;52.50;;;;;;;-5.58;69.87;99815.48;107866;1285;22341;-51
2024/01/11 05:39:46;;;;;;;125.70;49.90;;;;;;;-5.58;69.90;99802.16;107844;1284;23036;-49
2024/01/11 05:42:11;;;;;;;120.40;47.70;;;;;;;-5.59;70.05;99799.25;107818;1285;23200;-50
2024/01/11 05:44:36;;;;;;;133.40;52.30;;;;;;;-5.64;70.89;99804.80;107855;1307;22245;-50
2024/01/11 05:47:01;;;;;;;119.10;48.10;;;;;;;-5.64;70.77;99806.49;107827;1285;23282;-51
2024/01/11 05:49:27;;;;;;;122.90;51.20;;;;;;;-5.64;70.89;99811.45;107855;1308;23895;-51
2024/01/11 05:51:52;;;;;;;132.90;54.10;;;;;;;-5.63;70.59;99815.23;107860;1284;22256;-51
2024/01/11 05:54:17;;;;;;;132.70;52.80;;;;;;;-5.63;70.97;99811.46;107809;1308;23391;-47
2024/01/11 05:56:42;;;;;;;132.50;51.80;;;;;;;-5.62;71.01;99805.85;107860;1308;22504;-49
2024/01/11 05:59:08;;;;;;;125.20;50.60;;;;;;;-5.64;71.31;99803.59;107847;1308;23233;-47
2024/01/11 06:01:33;;;;;;;128.90;50.30;;;;;;;-5.68;71.51;99814.28;107871;1288;23204;-48
2024/01/11 06:03:58;;;;;;;124.00;52.30;;;;;;;-5.71;71.45;99823.61;107838;1308;22259;-49
2024/01/11 06:06:23;;;;;;;132.80;51.90;;;;;;;-5.76;72.26;99825.57;107861;1284;22307;-46
2024/01/11 06:08:49;;;;;;;119.40;46.20;;;;;;;-5.73;72.14;99813.50;107830;1308;22233;-48
2024/01/11 06:11:14;;;;;;;128.30;52.40;;;;;;;-5.67;71.98;99807.48;107865;1308;22260;-49
2024/01/11 06:13:42;;;;;;;132.60;49.70;;;;;;;-5.64;72.61;99806.16;107844;1291;22584;-49
2024/01/11 06:16:07;;;;;;;115.20;48.40;;;;;;;-5.60;72.37;99810.51;107853;1297;22239;-51
2024/01/11 06:18:33;;;;;;;120.00;48.40;;;;;;;-5.59;73.31;99808.98;107839;1289;22432;-51
2024/01/11 06:20:58;;;;;;;118.70;47.40;;;;;;;-5.59;73.18;99800.44;107840;1288;23222;-49
2024/01/11 06:23:25;;;;;;;116.30;46.00;;;;;;;-5.63;73.74;99805.14;107854;1308;22412;-47
2024/01/11 06:25:50;;;;;;;123.40;47.20;;;;;;;-5.66;73.99;99811.77;107861;1308;22477;-47
2024/01/11 06:28:16;;;;;;;106.60;44.70;;;;;;;-5.67;73.87;99820.63;107850;1291;22312;-46
2024/01/11 06:30:42;;;;;;;125.30;48.50;;;;;;;-5.68;74.40;99817.70;107853;1291;22219;-46
2024/01/11 06:33:08;;;;;;;130.50;49.90;;;;;;;-5.62;74.59;99820.04;107875;1308;22265;-48
2024/01/11 06:35:33;;;;;;;122.80;49.40;;;;;;;-5.55;74.32;99813.32;107831;1308;22310;-46
2024/01/11 06:37:58;;;;;;;116.40;46.40;;;;;;;-5.50;74.66;99810.16;107871;1308;22246;-47
2024/01/11 06:40:24;;;;;;;111.50;45.20;;;;;;;-5.48;74.73;99798.76;107859;1308;22271;-51
2024/01/11 06:42:49;;;;;;;121.20;48.40;;;;;;;-5.50;75.56;99794.45;107830;1285;22313;-50
2024/01/11 06:45:14;;;;;;;107.30;45.00;;;;;;;-5.56;76.36;99782.21;107859;1301;22251;-48
2024/01/11 06:47:40;;;;;;;114.90;46.10;;;;;;;-5.58;76.15;99781.83;107854;1285;22580;-50
2024/01/11 06:50:06;;;;;;;111.40;42.10;;;;;;;-5.58;77.13;99781.66;107827;1284;22259;-51
2024/01/11 06:52:31;;;;;;;120.00;46.80;;;;;;;-5.62;78.10;99788.27;107659;1293;23313;-50
2024/01/11 06:54:56;;;;;;;114.80;45.30;;;;;;;-5.56;77.95;99787.48;107832;1308;22241;-49
2024/01/11 06:57:22;;;;;;;112.60;43.60;;;;;;;-5.51;77.70;99787.42;107845;1308;22492;-49
2024/01/11 06:59:48;;;;;;;118.10;43.60;;;;;;;-5.47;78.54;99797.59;107843;1291;22266;-50
2024/01/11 07:02:13;;;;;;;107.10;44.40;;;;;;;-5.42;78.18;99800.75;107839;1290;22272;-49
2024/01/11 07:04:43;;;;;;;118.20;46.40;;;;;;;-5.35;78.09;99795.55;107859;1289;22186;-51
2024/01/11 07:07:09;;;;;;;122.40;49.40;;;;;;;-5.39;79.42;99799.93;107856;1297;22741;-50
2024/01/11 07:09:34;;;;;;;148.10;52.70;;;;;;;-5.40;79.87;99803.16;107831;1291;22238;-50
2024/01/11 07:12:00;;;;;;;110.80;42.30;;;;;;;-5.33;80.29;99788.05;107826;1291;22335;-49
2024/01/11 07:14:26;;;;;;;111.30;41.60;;;;;;;-5.33;80.52;99786.73;107851;1308;22235;-48
2024/01/11 07:16:51;;;;;;;100.10;39.60;;;;;;;-5.39;80.49;99785.40;107819;1285;22432;-50
2024/01/11 07:19:17;;;;;;;88.90;36.50;;;;;;;-5.44;80.11;99777.80;107817;1308;22878;-45
2024/01/11 07:21:42;;;;;;;100.70;39.90;;;;;;;-5.48;81.07;99772.10;107836;1290;22623;-45
2024/01/11 07:24:08;;;;;;;96.00;37.00;;;;;;;-5.46;80.28;99776.23;107857;1288;23039;-46
2024/01/11 07:26:33;;;;;;;93.70;37.20;;;;;;;-5.52;81.36;99780.90;107848;1308;22443;-47
2024/01/11 07:28:58;;;;;;;94.00;37.60;;;;;;;-5.51;81.35;99778.04;107818;1291;22902;-46
2024/01/11 07:31:24;;;;;;;99.60;40.90;;;;;;;-5.46;81.89;99767.52;107848;1291;23313;-49
2024/01/11 07:33:50;;;;;;;100.00;40.80;;;;;;;-5.39;82.23;99765.41;107618;1291;22448;-45
2024/01/11 07:36:15;;;;;;;95.00;39.10;;;;;;;-5.33;81.47;99759.70;107811;1308;23018;-48
2024/01/11 07:38:40;;;;;;;98.60;40.10;;;;;;;-5.37;83.02;99753.33;107853;1290;23026;-48
2024/01/11 07:41:06;;;;;;;84.80;37.30;;;;;;;-5.32;82.68;99749.80;107844;1291;22412;-47
2024/01/11 07:43:34;;;;;;;95.50;40.00;;;;;;;-5.26;82.70;99759.14;107843;1284;22854;-48
2024/01/11 07:46:00;;;;;;;97.30;39.70;;;;;;;-5.24;82.88;99762.59;107823;1308;22430;-49
2024/01/11 07:48:25;;;;;;;106.60;45.90;;;;;;;-5.24;82.97;99763.09;107860;1291;22335;-47
2024/01/11 07:50:50;;;;;;;103.40;43.00;;;;;;;-5.22;82.90;99768.60;107834;1308;22311;-48
2024/01/11 07:53:16;;;;;;;92.10;38.10;;;;;;;-5.26;82.92;99773.16;107835;1289;22239;-49
2024/01/11 07:55:42;;;;;;;89.00;40.10;;;;;;;-5.28;83.15;99762.36;107826;1291;22529;-50
2024/01/11 07:58:07;;;;;;;92.30;39.40;;;;;;;-5.25;83.57;99750.42;107838;1308;22423;-48
2024/01/11 08:00:33;;;;;;;104.60;43.20;;;;;;;-5.25;84.53;99746.16;107835;1308;22244;-48
2024/01/11 08:02:58;;;;;;;93.80;39.50;;;;;;;-5.19;84.63;99749.33;107857;1289;22371;-50
2024/01/11 08:05:25;;;;;;;85.50;36.30;;;;;;;-5.17;84.52;99751.92;107860;1284;23295;-50
2024/01/11 08:07:50;;;;;;;85.10;35.90;;;;;;;-5.19;84.47;99760.42;107875;1291;22352;-50
2024/01/11 08:10:15;;;;;;;86.80;36.90;;;;;;;-5.25;84.47;99761.20;107831;1288;22283;-51
2024/01/11 08:12:40;;;;;;;78.90;33.20;;;;;;;-5.26;85.63;99763.92;107811;1289;22949;-48
2024/01/11 08:15:06;;;;;;;74.40;32.90;;;;;;;-5.20;84.71;99763.52;107857;1284;24225;-52
2024/01/11 08:17:31;;;;;;;76.30;34.30;;;;;;;-5.26;85.63;99760.17;107830;1288;22936;-48
2024/01/11 08:19:57;;;;;;;77.90;33.40;;;;;;;-5.25;85.07;99769.58;107828;1284;22439;-50
2024/01/11 08:22:23;;;;;;;110.80;46.40;;;;;;;-5.28;85.68;99773.96;107848;1308;23678;-51
2024/01/11 08:24:48;;;;;;;87.70;38.00;;;;;;;-5.31;86.49;99772.55;107840;1284;22563;-52
2024/01/11 08:27:17;;;;;;;96.70;41.20;;;;;;;-5.30;86.14;99775.48;107824;1292;22560;-46
2024/01/11 08:29:42;;;;;;;84.70;36.40;;;;;;;-5.34;87.38;99769.27;107853;1290;23051;-48
2024/01/11 08:32:07;;;;;;;75.90;32.50;;;;;;;-5.31;86.82;99768.45;107839;1285;22265;-47
2024/01/11 08:34:33;;;;;;;90.60;35.10;;;;;;;-5.33;87.31;99774.92;107827;1288;22228;-47
2024/01/11 08:36:58;;;;;;;75.70;33.20;;;;;;;-5.32;87.13;99772.02;107845;1308;22919;-47
2024/01/11 08:39:23;;;;;;;66.10;29.10;;;;;;;-5.28;86.39;99761.50;107804;1308;22448;-47
2024/01/11 08:41:48;;;;;;;70.80;31.20;;;;;;;-5.25;86.97;99767.18;107831;1308;22268;-47
2024/01/11 08:44:14;;;;;;;94.00;38.90;;;;;;;-5.24;87.43;99767.71;107824;1288;22400;-50
2024/01/11 08:46:39;;;;;;;77.30;34.50;;;;;;;-5.20;87.23;99763.66;107828;1296;22883;-52
2024/01/11 08:49:04;;;;;;;80.20;34.30;;;;;;;-5.19;87.35;99768.31;107829;1288;22433;-49
2024/01/11 08:51:30;;;;;;;81.70;35.80;;;;;;;-5.16;87.49;99774.16;107822;1284;22240;-51
2024/01/11 08:53:55;;;;;;;75.70;32.20;;;;;;;-5.13;87.49;99773.01;107845;1290;22336;-50
2024/01/11 08:56:21;;;;;;;81.80;33.00;;;;;;;-5.13;87.81;99765.15;107839;1284;22427;-51
2024/01/11 08:58:48;;;;;;;89.80;36.70;;;;;;;-5.10;87.85;99753.40;107830;1291;23108;-50
2024/01/11 09:01:13;;;;;;;110.50;43.20;;;;;;;-5.02;87.43;99758.98;107859;1288;23267;-47
2024/01/11 09:03:38;;;;;;;77.00;34.90;;;;;;;-4.97;87.80;99759.58;107834;1289;23071;-50
2024/01/11 09:06:03;;;;;;;79.50;34.00;;;;;;;-4.92;88.38;99768.38;107829;1285;22272;-51
2024/01/11 09:08:32;;;;;;;77.90;33.10;;;;;;;-4.85;86.91;99773.95;107830;1288;23323;-51
2024/01/11 09:10:58;;;;;;;79.00;33.30;;;;;;;-4.86;87.09;99779.41;107830;1308;23215;-51
2024/01/11 09:13:23;;;;;;;83.30;34.40;;;;;;;-4.90;87.80;99772.84;107856;1290;22317;-50
2024/01/11 09:15:49;;;;;;;74.80;33.00;;;;;;;-4.97;88.54;99773.77;107810;1308;22529;-49
2024/01/11 09:18:15;;;;;;;87.70;35.80;;;;;;;-4.97;88.96;99768.46;107842;1308;23359;-46
2024/01/11 09:20:41;;;;;;;79.70;34.30;;;;;;;-4.94;88.79;99771.08;107824;1289;22357;-47
2024/01/11 09:23:07;;;;;;;79.60;33.70;;;;;;;-4.93;88.52;99777.25;107834;1297;22276;-46
2024/01/11 09:25:32;;;;;;;90.30;37.70;;;;;;;-4.91;88.66;99782.23;107855;1288;22265;-47
2024/01/11 09:27:58;;;;;;;93.40;38.90;;;;;;;-4.88;88.91;99781.09;107821;1284;22297;-50
2024/01/11 09:30:23;;;;;;;80.00;34.30;;;;;;;-4.84;89.05;99774.30;107823;1289;22351;-52
2024/01/11 09:32:48;;;;;;;77.80;30.80;;;;;;;-4.81;89.52;99763.40;107837;1307;22457;-52
2024/01/11 09:35:14;;;;;;;76.90;30.10;;;;;;;-4.91;90.78;99773.02;107804;1308;22399;-53
2024/01/11 09:37:40;;;;;;;89.80;35.00;;;;;;;-4.87;90.28;99772.91;107808;1288;23317;-48
2024/01/11 09:40:10;;;;;;;76.10;32.10;;;;;;;-4.88;90.51;99770.48;107822;1289;22254;-51
2024/01/11 09:42:36;;;;;;;73.80;31.30;;;;;;;-4.90;91.41;99773.02;107840;1289;22209;-50
2024/01/11 09:45:02;;;;;;;78.70;33.00;;;;;;;-4.90;91.83;99767.38;107815;1308;22310;-52
2024/01/11 09:47:28;;;;;;;84.50;34.30;;;;;;;-4.86;91.56;99769.48;107836;1308;22245;-49
2024/01/11 09:49:54;;;;;;;74.20;30.40;;;;;;;-4.83;91.75;99768.00;107817;1289;22552;-49
2024/01/11 09:52:22;;;;;;;78.00;31.30;;;;;;;-4.83;91.89;99762.00;107755;1304;23275;-49
2024/01/11 09:54:47;;;;;;;;;;;;;;;-4.79;91.20;99757.10;107828;1308;22477;-48
2024/01/11 09:57:21;;;;;;;71.60;30.30;;;;;;;-4.76;91.97;99758.69;107822;1289;22990;-48
2024/01/11 09:59:48;;;;;;;73.10;30.20;;;;;;;-4.73;92.16;99753.59;107827;1307;23292;-49
2024/01/11 10:02:14;;;;;;;80.00;33.80;;;;;;;-4.68;92.82;99755.36;107818;1307;22259;-51
2024/01/11 10:04:42;;;;;;;75.70;30.80;;;;;;;-4.60;91.92;99756.16;107854;1289;22439;-49
2024/01/11 10:07:08;;;;;;;;;;;;;;;-4.57;90.85;99762.02;107841;1291;22467;-49
2024/01/11 10:09:33;;;;;;;68.10;26.80;;;;;;;-4.60;92.37;99761.81;107851;1289;22492;-49
2024/01/11 10:11:58;;;;;;;66.20;26.40;;;;;;;-4.58;91.81;99753.62;107805;1291;22977;-51
2024/01/11 10:14:24;;;;;;;70.40;30.10;;;;;;;-4.57;91.94;99750.38;107822;1289;22235;-50
2024/01/11 10:16:49;;;;;;;70.10;29.40;;;;;;;-4.59;92.76;99752.91;107818;1308;23198;-50
2024/01/11 10:19:16;;;;;;;66.30;27.60;;;;;;;-4.62;93.11;99751.51;107821;1308;22245;-49
2024/01/11 10:21:41;;;;;;;59.00;24.60;;;;;;;-4.60;93.73;99749.81;107824;1291;22995;-48
2024/01/11 10:24:06;;;;;;;77.90;28.50;;;;;;;-4.60;94.35;99745.20;107815;1308;22430;-51
2024/01/11 10:26:32;;;;;;;79.00;30.90;;;;;;;-4.58;95.33;99737.54;107605;1294;22231;-50
2024/01/11 10:28:59;;;;;;;78.90;28.30;;;;;;;-4.49;95.97;99737.48;107826;1308;23210;-50
2024/01/11 10:31:28;;;;;;;79.30;31.10;;;;;;;-4.40;95.39;99736.91;107845;1308;22246;-50
2024/01/11 10:33:53;;;;;;;80.00;29.10;;;;;;;-4.41;94.59;99729.54;107822;1308;23154;-52
2024/01/11 10:36:18;;;;;;;95.80;34.80;;;;;;;-4.38;94.17;99729.39;107848;1291;22247;-52
2024/01/11 10:38:47;;;;;;;113.50;36.20;;;;;;;-4.35;95.01;99731.48;107823;1285;22251;-51
2024/01/11 10:41:13;;;;;;;86.60;31.80;;;;;;;-4.38;95.57;99725.64;107834;1308;22254;-48
2024/01/11 10:43:39;;;;;;;88.90;31.10;;;;;;;-4.37;96.29;99722.05;107830;1308;23227;-50
2024/01/11 10:46:06;;;;;;;74.50;28.10;;;;;;;-4.34;96.85;99714.89;107818;1289;22325;-51
2024/01/11 10:48:37;;;;;;;75.30;29.70;;;;;;;-4.29;96.75;99708.11;107827;1289;22408;-49
2024/01/11 10:51:07;;;;;;;68.00;27.00;;;;;;;-4.27;97.45;99704.04;107816;1308;22231;-51
2024/01/11 10:53:46;;;;;;;68.60;27.00;;;;;;;-4.23;97.30;99700.31;107836;1291;23148;-52
2024/01/11 10:56:18;;;;;;;67.70;27.40;;;;;;;-4.21;97.59;99704.27;107833;1290;22225;-48
2024/01/11 10:58:44;;;;;;;59.50;24.40;;;;;;;-4.23;98.08;99700.65;107829;1308;22253;-51
2024/01/11 11:01:16;;;;;;;67.70;26.10;;;;;;;-4.21;98.48;99692.80;107819;1308;23358;-51